Portland, Tennessee
Current Conditions -  °F | °C
As of 6:35 PM on Wednesday 28 Jan 2015 (Local Time) from KM91 Reporting Station
Clear Clear  
Wind Chill: 38°   Ceiling: Unl
Heat Index: 41°   Visibility: 10mi
Dew Point: 27°   Wind: 5mph
Humidity: 57%   Direction: 160°SSE
Pressure: 30.18"   Gusts: NA
Location:  36.58°N, 86.51°W
Report Text: KM91 290035Z AUTO 16004KT 10SM CLR 05/M03 A3018 RMK
Loading
Personal Weather Stations






























Interactive Weather Map New forecast layout! Learn more

10-Day Weather Forecast

Advertisements
Track Severe Weather on mobile